OIMT

Tabas Airport

Airport
ICAO code
OIMT
IATA Code
TCX
Summary
ICAO Region
APAC
ICAO Territory
Location

Tabas, South Khorasan

Serving
Tabas
Elevation
2312 ft
Coordinates
33° 40' 9" N , 56° 53' 49" E
KCC
Metar
Observation
OIMT 280800Z AUTO 19002KT //// // ////// 20/M02 Q1018
Station
Tabas
Date/Time
2022-11-28 08:00:00
Wind direction
190°
Wind speed
02 kts
Lowest cloud amount
n/a
Temperature
20°C
Dew point
-2°C
Humidity
22%
QNH
1018 hPa
Weather condition
n/a

Airport serving Tabas a city in the South Khorasan Province of central Iran.

Climatology

Cold semi-arid climate (Köppen climate classification BSk)

Runways

Designator Length Width Surface Rops
15/33 3041 45 ASP No/No

Airport map

Aerial View

SKYbrary Partners:

Safety knowledge contributed by: